sensor_id;sensor_type;location;lat;lon;timestamp;P1;durP1;ratioP1;P2;durP2;ratioP2
55461;SDS011;41327;45.102;20.624;2024-02-23T00:01:30;13.18;;;7.25;;
55461;SDS011;41327;45.102;20.624;2024-02-23T00:03:56;10.90;;;6.05;;
55461;SDS011;41327;45.102;20.624;2024-02-23T00:06:22;15.02;;;6.60;;
55461;SDS011;41327;45.102;20.624;2024-02-23T00:08:53;10.73;;;5.90;;
55461;SDS011;41327;45.102;20.624;2024-02-23T00:11:20;11.25;;;5.60;;
55461;SDS011;41327;45.102;20.624;2024-02-23T00:13:46;10.32;;;5.85;;
55461;SDS011;41327;45.102;20.624;2024-02-23T00:16:11;11.43;;;5.78;;
55461;SDS011;41327;45.102;20.624;2024-02-23T00:18:37;11.85;;;6.75;;
55461;SDS011;41327;45.102;20.624;2024-02-23T00:21:03;13.10;;;6.40;;
55461;SDS011;41327;45.102;20.624;2024-02-23T00:23:29;13.55;;;5.88;;
55461;SDS011;41327;45.102;20.624;2024-02-23T00:25:54;12.15;;;5.90;;
55461;SDS011;41327;45.102;20.624;2024-02-23T00:28:21;10.23;;;6.15;;
55461;SDS011;41327;45.102;20.624;2024-02-23T00:30:52;13.48;;;6.45;;
55461;SDS011;41327;45.102;20.624;2024-02-23T00:33:23;13.50;;;6.70;;
55461;SDS011;41327;45.102;20.624;2024-02-23T00:35:51;9.40;;;5.95;;
55461;SDS011;41327;45.102;20.624;2024-02-23T00:38:22;11.57;;;6.72;;
55461;SDS011;41327;45.102;20.624;2024-02-23T00:40:52;10.50;;;5.25;;
55461;SDS011;41327;45.102;20.624;2024-02-23T00:43:20;13.23;;;6.25;;
55461;SDS011;41327;45.102;20.624;2024-02-23T00:45:48;9.18;;;4.93;;
55461;SDS011;41327;45.102;20.624;2024-02-23T00:48:14;11.75;;;5.93;;
55461;SDS011;41327;45.102;20.624;2024-02-23T00:50:41;10.10;;;5.63;;
55461;SDS011;41327;45.102;20.624;2024-02-23T00:53:12;9.75;;;5.72;;
55461;SDS011;41327;45.102;20.624;2024-02-23T00:55:46;10.60;;;5.75;;
55461;SDS011;41327;45.102;20.624;2024-02-23T00:58:16;9.88;;;4.97;;
55461;SDS011;41327;45.102;20.624;2024-02-23T01:00:50;10.40;;;5.63;;
55461;SDS011;41327;45.102;20.624;2024-02-23T01:03:17;10.15;;;5.60;;
55461;SDS011;41327;45.102;20.624;2024-02-23T01:05:44;9.10;;;5.53;;
55461;SDS011;41327;45.102;20.624;2024-02-23T01:08:12;8.10;;;5.30;;
55461;SDS011;41327;45.102;20.624;2024-02-23T01:10:44;6.70;;;4.63;;
55461;SDS011;41327;45.102;20.624;2024-02-23T01:13:11;8.90;;;5.20;;
55461;SDS011;41327;45.102;20.624;2024-02-23T01:15:39;8.13;;;4.90;;
55461;SDS011;41327;45.102;20.624;2024-02-23T01:18:07;14.13;;;5.55;;
55461;SDS011;41327;45.102;20.624;2024-02-23T01:20:37;8.43;;;5.68;;
55461;SDS011;41327;45.102;20.624;2024-02-23T01:23:09;10.13;;;5.65;;
55461;SDS011;41327;45.102;20.624;2024-02-23T01:25:39;7.93;;;4.65;;
55461;SDS011;41327;45.102;20.624;2024-02-23T01:28:06;9.45;;;5.28;;
55461;SDS011;41327;45.102;20.624;2024-02-23T01:30:34;9.35;;;4.55;;
55461;SDS011;41327;45.102;20.624;2024-02-23T01:33:04;8.10;;;5.03;;
55461;SDS011;41327;45.102;20.624;2024-02-23T01:35:35;8.30;;;5.63;;
55461;SDS011;41327;45.102;20.624;2024-02-23T01:38:03;7.60;;;5.28;;
55461;SDS011;41327;45.102;20.624;2024-02-23T01:40:34;8.10;;;4.30;;
55461;SDS011;41327;45.102;20.624;2024-02-23T01:43:05;7.72;;;4.25;;
55461;SDS011;41327;45.102;20.624;2024-02-23T01:45:36;6.75;;;4.20;;
55461;SDS011;41327;45.102;20.624;2024-02-23T01:48:03;7.80;;;4.88;;
55461;SDS011;41327;45.102;20.624;2024-02-23T01:50:38;8.63;;;4.70;;
55461;SDS011;41327;45.102;20.624;2024-02-23T01:53:06;8.82;;;4.75;;
55461;SDS011;41327;45.102;20.624;2024-02-23T01:55:45;10.10;;;5.30;;
55461;SDS011;41327;45.102;20.624;2024-02-23T01:58:15;8.27;;;4.63;;
55461;SDS011;41327;45.102;20.624;2024-02-23T02:00:47;9.00;;;4.68;;
55461;SDS011;41327;45.102;20.624;2024-02-23T02:03:15;8.18;;;5.35;;
55461;SDS011;41327;45.102;20.624;2024-02-23T02:05:42;11.00;;;4.72;;
55461;SDS011;41327;45.102;20.624;2024-02-23T02:08:10;6.72;;;4.30;;
55461;SDS011;41327;45.102;20.624;2024-02-23T02:10:37;6.63;;;4.45;;
55461;SDS011;41327;45.102;20.624;2024-02-23T02:13:05;8.35;;;4.25;;
55461;SDS011;41327;45.102;20.624;2024-02-23T02:15:37;8.88;;;5.00;;
55461;SDS011;41327;45.102;20.624;2024-02-23T02:18:04;8.02;;;4.80;;
55461;SDS011;41327;45.102;20.624;2024-02-23T02:20:33;5.75;;;4.05;;
55461;SDS011;41327;45.102;20.624;2024-02-23T02:23:10;7.85;;;4.45;;
55461;SDS011;41327;45.102;20.624;2024-02-23T02:25:41;6.93;;;4.57;;
55461;SDS011;41327;45.102;20.624;2024-02-23T02:28:28;8.82;;;4.97;;
55461;SDS011;41327;45.102;20.624;2024-02-23T02:31:00;6.43;;;3.97;;
55461;SDS011;41327;45.102;20.624;2024-02-23T02:33:26;8.35;;;4.53;;
55461;SDS011;41327;45.102;20.624;2024-02-23T02:35:52;9.52;;;5.53;;
55461;SDS011;41327;45.102;20.624;2024-02-23T02:38:17;8.27;;;4.65;;
55461;SDS011;41327;45.102;20.624;2024-02-23T02:40:43;8.77;;;5.05;;
55461;SDS011;41327;45.102;20.624;2024-02-23T02:43:09;8.50;;;4.43;;
55461;SDS011;41327;45.102;20.624;2024-02-23T02:45:34;7.35;;;4.22;;
55461;SDS011;41327;45.102;20.624;2024-02-23T02:48:00;10.98;;;4.70;;
55461;SDS011;41327;45.102;20.624;2024-02-23T02:50:27;6.40;;;3.72;;
55461;SDS011;41327;45.102;20.624;2024-02-23T02:52:53;8.27;;;4.05;;
55461;SDS011;41327;45.102;20.624;2024-02-23T02:55:21;4.88;;;3.58;;
55461;SDS011;41327;45.102;20.624;2024-02-23T02:57:49;8.10;;;4.70;;
55461;SDS011;41327;45.102;20.624;2024-02-23T03:00:29;7.55;;;3.92;;
55461;SDS011;41327;45.102;20.624;2024-02-23T03:03:00;8.50;;;4.72;;
55461;SDS011;41327;45.102;20.624;2024-02-23T03:05:25;5.05;;;3.58;;
55461;SDS011;41327;45.102;20.624;2024-02-23T03:07:51;8.30;;;3.90;;
55461;SDS011;41327;45.102;20.624;2024-02-23T03:10:16;7.65;;;4.18;;
55461;SDS011;41327;45.102;20.624;2024-02-23T03:12:42;5.82;;;3.75;;
55461;SDS011;41327;45.102;20.624;2024-02-23T03:15:07;7.50;;;4.43;;
55461;SDS011;41327;45.102;20.624;2024-02-23T03:17:35;7.90;;;4.07;;
55461;SDS011;41327;45.102;20.624;2024-02-23T03:20:00;7.50;;;3.80;;
55461;SDS011;41327;45.102;20.624;2024-02-23T03:22:26;4.78;;;3.33;;
55461;SDS011;41327;45.102;20.624;2024-02-23T03:24:52;6.43;;;4.10;;
55461;SDS011;41327;45.102;20.624;2024-02-23T03:27:17;6.55;;;4.07;;
55461;SDS011;41327;45.102;20.624;2024-02-23T03:29:43;6.88;;;4.43;;
55461;SDS011;41327;45.102;20.624;2024-02-23T03:32:08;9.07;;;3.95;;
55461;SDS011;41327;45.102;20.624;2024-02-23T03:34:34;7.22;;;3.40;;
55461;SDS011;41327;45.102;20.624;2024-02-23T03:37:00;4.95;;;3.33;;
55461;SDS011;41327;45.102;20.624;2024-02-23T03:39:27;5.80;;;3.33;;
55461;SDS011;41327;45.102;20.624;2024-02-23T03:41:54;5.07;;;3.40;;
55461;SDS011;41327;45.102;20.624;2024-02-23T03:44:19;8.30;;;4.18;;
55461;SDS011;41327;45.102;20.624;2024-02-23T03:46:45;4.32;;;3.08;;
55461;SDS011;41327;45.102;20.624;2024-02-23T03:49:10;7.85;;;3.90;;
55461;SDS011;41327;45.102;20.624;2024-02-23T03:51:37;5.85;;;3.67;;
55461;SDS011;41327;45.102;20.624;2024-02-23T03:54:05;7.78;;;3.70;;
55461;SDS011;41327;45.102;20.624;2024-02-23T03:56:37;7.32;;;3.50;;
55461;SDS011;41327;45.102;20.624;2024-02-23T03:59:04;6.70;;;3.50;;
55461;SDS011;41327;45.102;20.624;2024-02-23T04:01:29;7.78;;;3.22;;
55461;SDS011;41327;45.102;20.624;2024-02-23T04:03:55;7.00;;;3.65;;
55461;SDS011;41327;45.102;20.624;2024-02-23T04:06:21;5.43;;;3.70;;
55461;SDS011;41327;45.102;20.624;2024-02-23T04:08:46;6.88;;;3.75;;
55461;SDS011;41327;45.102;20.624;2024-02-23T04:11:15;3.38;;;2.33;;
55461;SDS011;41327;45.102;20.624;2024-02-23T04:13:40;6.85;;;3.50;;
55461;SDS011;41327;45.102;20.624;2024-02-23T04:16:06;8.63;;;3.55;;
55461;SDS011;41327;45.102;20.624;2024-02-23T04:18:31;13.63;;;3.28;;
55461;SDS011;41327;45.102;20.624;2024-02-23T04:20:57;5.65;;;3.28;;
55461;SDS011;41327;45.102;20.624;2024-02-23T04:23:22;8.18;;;3.70;;
55461;SDS011;41327;45.102;20.624;2024-02-23T04:25:48;7.25;;;3.60;;
55461;SDS011;41327;45.102;20.624;2024-02-23T04:28:16;6.22;;;3.35;;
55461;SDS011;41327;45.102;20.624;2024-02-23T04:30:41;6.65;;;2.88;;
55461;SDS011;41327;45.102;20.624;2024-02-23T04:33:06;11.57;;;2.80;;
55461;SDS011;41327;45.102;20.624;2024-02-23T04:35:32;5.00;;;3.10;;
55461;SDS011;41327;45.102;20.624;2024-02-23T04:37:57;3.83;;;1.95;;
55461;SDS011;41327;45.102;20.624;2024-02-23T04:40:23;3.78;;;2.60;;
55461;SDS011;41327;45.102;20.624;2024-02-23T04:42:48;6.10;;;3.10;;
55461;SDS011;41327;45.102;20.624;2024-02-23T04:45:14;6.93;;;3.72;;
55461;SDS011;41327;45.102;20.624;2024-02-23T04:47:39;5.07;;;2.65;;
55461;SDS011;41327;45.102;20.624;2024-02-23T04:50:06;9.18;;;3.67;;
55461;SDS011;41327;45.102;20.624;2024-02-23T04:52:31;5.22;;;2.90;;
55461;SDS011;41327;45.102;20.624;2024-02-23T04:54:57;4.95;;;2.83;;
55461;SDS011;41327;45.102;20.624;2024-02-23T04:57:22;4.50;;;2.72;;
55461;SDS011;41327;45.102;20.624;2024-02-23T04:59:48;4.32;;;2.28;;
55461;SDS011;41327;45.102;20.624;2024-02-23T05:02:24;9.20;;;3.20;;
55461;SDS011;41327;45.102;20.624;2024-02-23T05:04:58;6.53;;;2.95;;
55461;SDS011;41327;45.102;20.624;2024-02-23T05:07:25;4.32;;;2.88;;
55461;SDS011;41327;45.102;20.624;2024-02-23T05:09:58;5.32;;;2.92;;
55461;SDS011;41327;45.102;20.624;2024-02-23T05:12:28;3.72;;;2.25;;
55461;SDS011;41327;45.102;20.624;2024-02-23T05:15:16;8.07;;;2.80;;
55461;SDS011;41327;45.102;20.624;2024-02-23T05:17:45;7.18;;;3.05;;
55461;SDS011;41327;45.102;20.624;2024-02-23T05:20:13;3.65;;;2.38;;
55461;SDS011;41327;45.102;20.624;2024-02-23T05:25:18;4.57;;;2.53;;
55461;SDS011;41327;45.102;20.624;2024-02-23T05:27:45;3.90;;;1.80;;
55461;SDS011;41327;45.102;20.624;2024-02-23T05:30:13;5.53;;;2.35;;
55461;SDS011;41327;45.102;20.624;2024-02-23T05:32:40;6.68;;;2.80;;
55461;SDS011;41327;45.102;20.624;2024-02-23T05:35:08;5.63;;;2.50;;
55461;SDS011;41327;45.102;20.624;2024-02-23T05:37:35;7.60;;;3.30;;
55461;SDS011;41327;45.102;20.624;2024-02-23T05:40:06;6.10;;;2.90;;
55461;SDS011;41327;45.102;20.624;2024-02-23T05:42:36;5.63;;;2.75;;
55461;SDS011;41327;45.102;20.624;2024-02-23T05:45:04;4.57;;;2.25;;
55461;SDS011;41327;45.102;20.624;2024-02-23T05:47:36;4.20;;;2.60;;
55461;SDS011;41327;45.102;20.624;2024-02-23T05:50:02;4.88;;;2.78;;
55461;SDS011;41327;45.102;20.624;2024-02-23T05:52:30;7.55;;;3.25;;
55461;SDS011;41327;45.102;20.624;2024-02-23T05:54:56;5.43;;;2.78;;
55461;SDS011;41327;45.102;20.624;2024-02-23T05:57:22;4.97;;;2.83;;
55461;SDS011;41327;45.102;20.624;2024-02-23T05:59:47;5.10;;;3.00;;
55461;SDS011;41327;45.102;20.624;2024-02-23T06:02:13;5.35;;;2.45;;
55461;SDS011;41327;45.102;20.624;2024-02-23T06:04:40;3.75;;;2.95;;
55461;SDS011;41327;45.102;20.624;2024-02-23T06:07:05;4.55;;;2.88;;
55461;SDS011;41327;45.102;20.624;2024-02-23T06:09:31;4.05;;;2.45;;
55461;SDS011;41327;45.102;20.624;2024-02-23T06:11:56;5.90;;;3.20;;
55461;SDS011;41327;45.102;20.624;2024-02-23T06:14:22;6.65;;;3.20;;
55461;SDS011;41327;45.102;20.624;2024-02-23T06:16:48;4.00;;;2.50;;
55461;SDS011;41327;45.102;20.624;2024-02-23T06:19:14;4.38;;;2.63;;
55461;SDS011;41327;45.102;20.624;2024-02-23T06:21:40;6.30;;;3.25;;
55461;SDS011;41327;45.102;20.624;2024-02-23T06:24:06;7.55;;;4.13;;
55461;SDS011;41327;45.102;20.624;2024-02-23T06:26:33;11.93;;;3.20;;
55461;SDS011;41327;45.102;20.624;2024-02-23T06:28:59;8.57;;;2.65;;
55461;SDS011;41327;45.102;20.624;2024-02-23T06:31:25;6.57;;;3.53;;
55461;SDS011;41327;45.102;20.624;2024-02-23T06:33:51;6.05;;;3.90;;
55461;SDS011;41327;45.102;20.624;2024-02-23T06:36:20;5.38;;;2.78;;
55461;SDS011;41327;45.102;20.624;2024-02-23T06:38:45;5.20;;;3.05;;
55461;SDS011;41327;45.102;20.624;2024-02-23T06:41:11;6.60;;;3.15;;
55461;SDS011;41327;45.102;20.624;2024-02-23T06:43:37;8.27;;;3.30;;
55461;SDS011;41327;45.102;20.624;2024-02-23T06:46:09;5.10;;;3.22;;
55461;SDS011;41327;45.102;20.624;2024-02-23T06:48:35;5.78;;;3.30;;
55461;SDS011;41327;45.102;20.624;2024-02-23T06:51:02;6.50;;;3.58;;
55461;SDS011;41327;45.102;20.624;2024-02-23T06:53:29;5.97;;;3.58;;
55461;SDS011;41327;45.102;20.624;2024-02-23T06:55:55;6.60;;;3.85;;
55461;SDS011;41327;45.102;20.624;2024-02-23T06:58:20;9.15;;;3.28;;
55461;SDS011;41327;45.102;20.624;2024-02-23T07:00:46;5.93;;;3.28;;
55461;SDS011;41327;45.102;20.624;2024-02-23T07:03:12;10.27;;;4.63;;
55461;SDS011;41327;45.102;20.624;2024-02-23T07:05:40;7.68;;;3.53;;
55461;SDS011;41327;45.102;20.624;2024-02-23T07:08:07;6.82;;;4.07;;
55461;SDS011;41327;45.102;20.624;2024-02-23T07:10:33;3.97;;;3.55;;
55461;SDS011;41327;45.102;20.624;2024-02-23T07:12:59;10.60;;;4.85;;
55461;SDS011;41327;45.102;20.624;2024-02-23T07:15:24;7.95;;;3.97;;
55461;SDS011;41327;45.102;20.624;2024-02-23T07:17:51;12.50;;;5.18;;
55461;SDS011;41327;45.102;20.624;2024-02-23T07:20:17;5.82;;;3.38;;
55461;SDS011;41327;45.102;20.624;2024-02-23T07:22:43;6.80;;;3.92;;
55461;SDS011;41327;45.102;20.624;2024-02-23T07:25:11;7.70;;;3.78;;
55461;SDS011;41327;45.102;20.624;2024-02-23T07:27:37;9.68;;;3.97;;
55461;SDS011;41327;45.102;20.624;2024-02-23T07:30:02;6.40;;;3.63;;
55461;SDS011;41327;45.102;20.624;2024-02-23T07:32:29;8.80;;;3.40;;
55461;SDS011;41327;45.102;20.624;2024-02-23T07:34:55;7.30;;;3.92;;
55461;SDS011;41327;45.102;20.624;2024-02-23T07:37:21;8.45;;;4.60;;
55461;SDS011;41327;45.102;20.624;2024-02-23T07:39:46;10.20;;;3.92;;
55461;SDS011;41327;45.102;20.624;2024-02-23T07:42:12;8.45;;;4.53;;
55461;SDS011;41327;45.102;20.624;2024-02-23T07:44:39;11.80;;;4.95;;
55461;SDS011;41327;45.102;20.624;2024-02-23T07:47:05;11.70;;;4.43;;
55461;SDS011;41327;45.102;20.624;2024-02-23T07:49:31;8.90;;;4.35;;
55461;SDS011;41327;45.102;20.624;2024-02-23T07:51:57;11.27;;;4.88;;
55461;SDS011;41327;45.102;20.624;2024-02-23T07:54:23;8.80;;;4.05;;
55461;SDS011;41327;45.102;20.624;2024-02-23T07:56:52;12.48;;;5.20;;
55461;SDS011;41327;45.102;20.624;2024-02-23T07:59:19;14.90;;;6.47;;
55461;SDS011;41327;45.102;20.624;2024-02-23T08:01:45;11.80;;;4.78;;
55461;SDS011;41327;45.102;20.624;2024-02-23T08:04:10;9.60;;;5.15;;
55461;SDS011;41327;45.102;20.624;2024-02-23T08:06:36;8.60;;;4.13;;
55461;SDS011;41327;45.102;20.624;2024-02-23T08:09:01;9.55;;;4.35;;
55461;SDS011;41327;45.102;20.624;2024-02-23T08:11:27;11.23;;;5.45;;
55461;SDS011;41327;45.102;20.624;2024-02-23T08:13:53;5.57;;;3.78;;
55461;SDS011;41327;45.102;20.624;2024-02-23T08:16:18;12.82;;;5.53;;
55461;SDS011;41327;45.102;20.624;2024-02-23T08:18:44;15.20;;;5.25;;
55461;SDS011;41327;45.102;20.624;2024-02-23T08:21:10;9.55;;;4.70;;
55461;SDS011;41327;45.102;20.624;2024-02-23T08:23:36;12.48;;;5.03;;
55461;SDS011;41327;45.102;20.624;2024-02-23T08:26:01;10.32;;;5.05;;
55461;SDS011;41327;45.102;20.624;2024-02-23T08:28:27;8.10;;;3.95;;
55461;SDS011;41327;45.102;20.624;2024-02-23T08:30:52;12.07;;;4.88;;
55461;SDS011;41327;45.102;20.624;2024-02-23T08:33:19;5.53;;;3.40;;
55461;SDS011;41327;45.102;20.624;2024-02-23T08:35:45;12.65;;;5.10;;
55461;SDS011;41327;45.102;20.624;2024-02-23T08:38:13;6.75;;;3.20;;
55461;SDS011;41327;45.102;20.624;2024-02-23T08:40:39;15.00;;;5.20;;
55461;SDS011;41327;45.102;20.624;2024-02-23T08:43:04;11.13;;;5.70;;
55461;SDS011;41327;45.102;20.624;2024-02-23T08:45:30;8.05;;;4.70;;
55461;SDS011;41327;45.102;20.624;2024-02-23T08:47:56;9.45;;;5.35;;
55461;SDS011;41327;45.102;20.624;2024-02-23T08:50:21;7.40;;;4.43;;
55461;SDS011;41327;45.102;20.624;2024-02-23T08:52:47;7.88;;;5.03;;
55461;SDS011;41327;45.102;20.624;2024-02-23T08:55:12;13.07;;;5.45;;
55461;SDS011;41327;45.102;20.624;2024-02-23T08:57:38;11.48;;;5.78;;
55461;SDS011;41327;45.102;20.624;2024-02-23T09:00:04;12.00;;;5.85;;
55461;SDS011;41327;45.102;20.624;2024-02-23T09:02:30;9.25;;;4.82;;
55461;SDS011;41327;45.102;20.624;2024-02-23T09:04:57;10.30;;;5.78;;
55461;SDS011;41327;45.102;20.624;2024-02-23T09:07:23;8.02;;;4.47;;
55461;SDS011;41327;45.102;20.624;2024-02-23T09:09:49;11.32;;;4.68;;
55461;SDS011;41327;45.102;20.624;2024-02-23T09:12:15;11.18;;;4.45;;
55461;SDS011;41327;45.102;20.624;2024-02-23T09:14:42;6.38;;;3.67;;
55461;SDS011;41327;45.102;20.624;2024-02-23T09:17:08;11.50;;;5.43;;
55461;SDS011;41327;45.102;20.624;2024-02-23T09:19:35;18.17;;;4.57;;
55461;SDS011;41327;45.102;20.624;2024-02-23T09:22:01;10.98;;;4.97;;
55461;SDS011;41327;45.102;20.624;2024-02-23T09:24:27;7.93;;;4.00;;
55461;SDS011;41327;45.102;20.624;2024-02-23T09:26:53;7.97;;;4.55;;
55461;SDS011;41327;45.102;20.624;2024-02-23T09:29:18;10.95;;;5.15;;
55461;SDS011;41327;45.102;20.624;2024-02-23T09:31:44;9.93;;;4.82;;
55461;SDS011;41327;45.102;20.624;2024-02-23T09:34:10;9.68;;;4.47;;
55461;SDS011;41327;45.102;20.624;2024-02-23T09:36:35;10.40;;;5.68;;
55461;SDS011;41327;45.102;20.624;2024-02-23T09:39:01;11.02;;;4.68;;
55461;SDS011;41327;45.102;20.624;2024-02-23T09:41:28;9.90;;;5.72;;
55461;SDS011;41327;45.102;20.624;2024-02-23T09:43:53;7.45;;;3.88;;
55461;SDS011;41327;45.102;20.624;2024-02-23T09:46:24;13.93;;;6.97;;
55461;SDS011;41327;45.102;20.624;2024-02-23T09:48:51;10.23;;;4.50;;
55461;SDS011;41327;45.102;20.624;2024-02-23T09:51:17;9.48;;;4.72;;
55461;SDS011;41327;45.102;20.624;2024-02-23T09:53:43;12.45;;;6.90;;
55461;SDS011;41327;45.102;20.624;2024-02-23T09:56:09;14.13;;;6.68;;
55461;SDS011;41327;45.102;20.624;2024-02-23T09:58:37;15.18;;;7.13;;
55461;SDS011;41327;45.102;20.624;2024-02-23T10:01:08;17.73;;;7.13;;
55461;SDS011;41327;45.102;20.624;2024-02-23T10:03:36;15.55;;;6.80;;
55461;SDS011;41327;45.102;20.624;2024-02-23T10:06:03;11.85;;;6.35;;
55461;SDS011;41327;45.102;20.624;2024-02-23T10:08:31;12.07;;;5.10;;
55461;SDS011;41327;45.102;20.624;2024-02-23T10:10:57;13.43;;;6.45;;
55461;SDS011;41327;45.102;20.624;2024-02-23T10:13:23;10.10;;;5.18;;
55461;SDS011;41327;45.102;20.624;2024-02-23T10:15:49;8.90;;;5.43;;
55461;SDS011;41327;45.102;20.624;2024-02-23T10:18:16;9.48;;;5.13;;
55461;SDS011;41327;45.102;20.624;2024-02-23T10:20:41;11.43;;;5.68;;
55461;SDS011;41327;45.102;20.624;2024-02-23T10:23:07;11.32;;;4.82;;
55461;SDS011;41327;45.102;20.624;2024-02-23T10:25:33;8.13;;;4.45;;
55461;SDS011;41327;45.102;20.624;2024-02-23T10:28:00;6.72;;;3.75;;
55461;SDS011;41327;45.102;20.624;2024-02-23T10:30:30;4.43;;;2.70;;
55461;SDS011;41327;45.102;20.624;2024-02-23T10:32:56;6.43;;;4.30;;
55461;SDS011;41327;45.102;20.624;2024-02-23T10:35:22;8.63;;;4.55;;
55461;SDS011;41327;45.102;20.624;2024-02-23T10:37:49;6.95;;;4.25;;
55461;SDS011;41327;45.102;20.624;2024-02-23T10:40:19;9.85;;;3.63;;
55461;SDS011;41327;45.102;20.624;2024-02-23T10:42:45;5.07;;;4.32;;
55461;SDS011;41327;45.102;20.624;2024-02-23T10:45:16;8.38;;;4.68;;
55461;SDS011;41327;45.102;20.624;2024-02-23T10:47:45;6.82;;;4.15;;
55461;SDS011;41327;45.102;20.624;2024-02-23T10:50:11;5.25;;;3.47;;
55461;SDS011;41327;45.102;20.624;2024-02-23T10:52:43;6.45;;;3.95;;
55461;SDS011;41327;45.102;20.624;2024-02-23T10:55:09;11.68;;;3.90;;
55461;SDS011;41327;45.102;20.624;2024-02-23T10:57:35;5.28;;;3.38;;
55461;SDS011;41327;45.102;20.624;2024-02-23T11:00:01;9.05;;;4.30;;
55461;SDS011;41327;45.102;20.624;2024-02-23T11:02:31;8.25;;;3.55;;
55461;SDS011;41327;45.102;20.624;2024-02-23T11:04:57;6.90;;;4.18;;
55461;SDS011;41327;45.102;20.624;2024-02-23T11:07:23;8.40;;;4.43;;
55461;SDS011;41327;45.102;20.624;2024-02-23T11:09:53;6.70;;;3.72;;
55461;SDS011;41327;45.102;20.624;2024-02-23T11:12:26;7.60;;;3.92;;
55461;SDS011;41327;45.102;20.624;2024-02-23T11:15:00;4.50;;;3.08;;
55461;SDS011;41327;45.102;20.624;2024-02-23T11:17:26;10.93;;;4.30;;
55461;SDS011;41327;45.102;20.624;2024-02-23T11:19:54;6.55;;;4.15;;
55461;SDS011;41327;45.102;20.624;2024-02-23T11:22:24;7.38;;;4.45;;
55461;SDS011;41327;45.102;20.624;2024-02-23T11:24:59;13.52;;;5.78;;
55461;SDS011;41327;45.102;20.624;2024-02-23T11:27:39;10.68;;;5.05;;
55461;SDS011;41327;45.102;20.624;2024-02-23T11:30:08;10.05;;;4.30;;
55461;SDS011;41327;45.102;20.624;2024-02-23T11:32:44;5.85;;;4.00;;
55461;SDS011;41327;45.102;20.624;2024-02-23T11:35:12;9.52;;;4.47;;
55461;SDS011;41327;45.102;20.624;2024-02-23T11:37:46;8.98;;;4.97;;
55461;SDS011;41327;45.102;20.624;2024-02-23T11:40:21;15.23;;;5.95;;
55461;SDS011;41327;45.102;20.624;2024-02-23T11:42:47;9.80;;;5.07;;
55461;SDS011;41327;45.102;20.624;2024-02-23T11:45:13;12.73;;;5.50;;
55461;SDS011;41327;45.102;20.624;2024-02-23T11:47:38;11.43;;;5.63;;
55461;SDS011;41327;45.102;20.624;2024-02-23T11:50:07;9.95;;;4.78;;
55461;SDS011;41327;45.102;20.624;2024-02-23T11:52:33;12.65;;;6.55;;
55461;SDS011;41327;45.102;20.624;2024-02-23T11:54:59;8.02;;;4.30;;
55461;SDS011;41327;45.102;20.624;2024-02-23T11:57:25;8.50;;;4.28;;
55461;SDS011;41327;45.102;20.624;2024-02-23T11:59:51;6.88;;;3.80;;
55461;SDS011;41327;45.102;20.624;2024-02-23T12:02:17;9.38;;;4.35;;
55461;SDS011;41327;45.102;20.624;2024-02-23T12:04:43;7.28;;;4.35;;
55461;SDS011;41327;45.102;20.624;2024-02-23T12:07:08;5.57;;;3.25;;
55461;SDS011;41327;45.102;20.624;2024-02-23T12:09:34;6.22;;;2.75;;
55461;SDS011;41327;45.102;20.624;2024-02-23T12:12:00;9.90;;;4.18;;
55461;SDS011;41327;45.102;20.624;2024-02-23T12:14:25;8.18;;;4.13;;
55461;SDS011;41327;45.102;20.624;2024-02-23T12:16:51;7.15;;;3.88;;
55461;SDS011;41327;45.102;20.624;2024-02-23T12:19:17;4.35;;;3.17;;
55461;SDS011;41327;45.102;20.624;2024-02-23T12:21:45;9.60;;;3.80;;
55461;SDS011;41327;45.102;20.624;2024-02-23T12:24:11;5.25;;;3.53;;
55461;SDS011;41327;45.102;20.624;2024-02-23T12:26:37;7.25;;;2.55;;
55461;SDS011;41327;45.102;20.624;2024-02-23T12:29:03;3.97;;;3.13;;
55461;SDS011;41327;45.102;20.624;2024-02-23T12:31:31;10.50;;;4.57;;
55461;SDS011;41327;45.102;20.624;2024-02-23T12:33:57;5.70;;;3.17;;
55461;SDS011;41327;45.102;20.624;2024-02-23T12:36:23;7.40;;;3.65;;
55461;SDS011;41327;45.102;20.624;2024-02-23T12:38:48;5.15;;;3.20;;
55461;SDS011;41327;45.102;20.624;2024-02-23T12:41:14;9.18;;;4.20;;
55461;SDS011;41327;45.102;20.624;2024-02-23T12:43:39;8.43;;;3.40;;
55461;SDS011;41327;45.102;20.624;2024-02-23T12:46:05;9.68;;;3.67;;
55461;SDS011;41327;45.102;20.624;2024-02-23T12:48:33;6.18;;;3.35;;
55461;SDS011;41327;45.102;20.624;2024-02-23T12:50:58;7.05;;;4.15;;
55461;SDS011;41327;45.102;20.624;2024-02-23T12:53:31;8.57;;;5.03;;
55461;SDS011;41327;45.102;20.624;2024-02-23T12:58:24;5.85;;;3.05;;
55461;SDS011;41327;45.102;20.624;2024-02-23T13:00:49;9.75;;;4.03;;
55461;SDS011;41327;45.102;20.624;2024-02-23T13:03:15;7.95;;;4.22;;
55461;SDS011;41327;45.102;20.624;2024-02-23T13:05:40;6.35;;;4.13;;
55461;SDS011;41327;45.102;20.624;2024-02-23T13:08:06;5.88;;;3.20;;
55461;SDS011;41327;45.102;20.624;2024-02-23T13:10:31;7.28;;;4.00;;
55461;SDS011;41327;45.102;20.624;2024-02-23T13:12:57;5.90;;;3.70;;
55461;SDS011;41327;45.102;20.624;2024-02-23T13:15:22;4.80;;;3.45;;
55461;SDS011;41327;45.102;20.624;2024-02-23T13:17:48;5.22;;;3.00;;
55461;SDS011;41327;45.102;20.624;2024-02-23T13:20:14;7.50;;;3.60;;
55461;SDS011;41327;45.102;20.624;2024-02-23T13:22:39;5.97;;;3.70;;
55461;SDS011;41327;45.102;20.624;2024-02-23T13:25:05;6.55;;;3.50;;
55461;SDS011;41327;45.102;20.624;2024-02-23T13:27:31;6.18;;;3.40;;
55461;SDS011;41327;45.102;20.624;2024-02-23T13:29:56;6.70;;;3.78;;
55461;SDS011;41327;45.102;20.624;2024-02-23T13:32:22;4.68;;;3.13;;
55461;SDS011;41327;45.102;20.624;2024-02-23T13:34:47;4.28;;;2.47;;
55461;SDS011;41327;45.102;20.624;2024-02-23T13:37:17;5.75;;;3.05;;
55461;SDS011;41327;45.102;20.624;2024-02-23T13:39:43;3.30;;;2.58;;
55461;SDS011;41327;45.102;20.624;2024-02-23T13:42:10;3.55;;;3.10;;
55461;SDS011;41327;45.102;20.624;2024-02-23T13:44:36;8.32;;;3.80;;
55461;SDS011;41327;45.102;20.624;2024-02-23T13:47:01;4.72;;;3.28;;
55461;SDS011;41327;45.102;20.624;2024-02-23T13:49:27;8.18;;;3.53;;
55461;SDS011;41327;45.102;20.624;2024-02-23T13:51:53;6.88;;;4.10;;
55461;SDS011;41327;45.102;20.624;2024-02-23T13:54:19;6.85;;;3.30;;
55461;SDS011;41327;45.102;20.624;2024-02-23T13:56:44;7.13;;;4.15;;
55461;SDS011;41327;45.102;20.624;2024-02-23T13:59:10;6.68;;;4.28;;
55461;SDS011;41327;45.102;20.624;2024-02-23T14:01:35;5.88;;;3.90;;
55461;SDS011;41327;45.102;20.624;2024-02-23T14:04:05;11.63;;;4.28;;
55461;SDS011;41327;45.102;20.624;2024-02-23T14:06:31;9.85;;;4.93;;
55461;SDS011;41327;45.102;20.624;2024-02-23T14:08:57;5.93;;;3.25;;
55461;SDS011;41327;45.102;20.624;2024-02-23T14:11:22;4.28;;;2.83;;
55461;SDS011;41327;45.102;20.624;2024-02-23T14:13:48;5.13;;;3.33;;
55461;SDS011;41327;45.102;20.624;2024-02-23T14:16:13;4.78;;;2.83;;
55461;SDS011;41327;45.102;20.624;2024-02-23T14:18:39;5.20;;;3.05;;
55461;SDS011;41327;45.102;20.624;2024-02-23T14:21:07;3.92;;;2.30;;
55461;SDS011;41327;45.102;20.624;2024-02-23T14:23:33;6.25;;;3.40;;
55461;SDS011;41327;45.102;20.624;2024-02-23T14:25:59;5.05;;;3.35;;
55461;SDS011;41327;45.102;20.624;2024-02-23T14:28:25;5.82;;;3.67;;
55461;SDS011;41327;45.102;20.624;2024-02-23T14:30:50;6.80;;;3.80;;
55461;SDS011;41327;45.102;20.624;2024-02-23T14:33:16;6.68;;;3.65;;
55461;SDS011;41327;45.102;20.624;2024-02-23T14:35:41;6.60;;;3.47;;